Time;durP1;ratioP1;P1;durP2;ratioP2;P2;SDS_P1;SDS_P2;PMS_P1;PMS_P2;Temp;Humidity;BMP_temperature;BMP_pressure;BME280_temperature;BME280_humidity;BME280_pressure;Samples;Min_cycle;Max_cycle;Signal;HPM_P1;HPM_P2
2023/04/11 00:01:22;;;;;;;129.00;98.50;;;;;;;6.93;74.80;100543.52;113535;1234;22682;-77
2023/04/11 00:03:53;;;;;;;115.20;94.80;;;;;;;6.92;74.93;100536.09;113425;1235;23471;-76
2023/04/11 00:06:26;;;;;;;107.40;91.10;;;;;;;6.88;74.94;100534.11;113577;1234;21939;-76
2023/04/11 00:08:56;;;;;;;110.10;92.50;;;;;;;6.85;75.04;100530.70;113147;1240;23600;-78
2023/04/11 00:11:37;;;;;;;103.50;89.40;;;;;;;6.83;75.27;100529.19;112920;1240;21960;-77
2023/04/11 00:14:12;;;;;;;100.00;87.60;;;;;;;6.79;75.54;100522.50;112955;1239;21961;-77
2023/04/11 00:16:49;;;;;;;102.40;85.90;;;;;;;6.76;75.51;100521.52;112907;1240;22099;-77
2023/04/11 00:19:24;;;;;;;102.80;86.20;;;;;;;6.74;75.59;100517.42;112900;1240;21943;-78
2023/04/11 00:22:02;;;;;;;105.40;89.40;;;;;;;6.69;75.65;100508.35;112866;1240;23618;-77
2023/04/11 00:24:35;;;;;;;97.50;84.20;;;;;;;6.63;75.77;100505.51;112175;1245;22785;-77
2023/04/11 00:27:17;;;;;;;104.60;88.20;;;;;;;6.58;75.74;100505.63;111671;1247;21979;-77
2023/04/11 00:29:56;;;;;;;117.20;87.10;;;;;;;6.51;75.73;100502.80;111730;1243;23016;-78
2023/04/11 00:32:37;;;;;;;105.40;87.80;;;;;;;6.46;76.02;100501.35;111803;1249;23623;-77
2023/04/11 00:35:11;;;;;;;98.10;87.70;;;;;;;6.41;76.08;100496.78;112497;1244;23471;-77
2023/04/11 00:37:43;;;;;;;99.50;85.00;;;;;;;6.37;76.28;100492.70;112330;1244;21946;-78
2023/04/11 00:40:19;;;;;;;105.10;89.90;;;;;;;6.34;76.16;100490.84;112067;1244;21944;-77
2023/04/11 00:42:51;;;;;;;109.40;91.20;;;;;;;6.32;76.24;100487.59;112381;1244;21947;-77
2023/04/11 00:45:27;;;;;;;99.20;88.40;;;;;;;6.31;76.30;100488.31;112312;1239;23672;-76
2023/04/11 00:48:01;;;;;;;99.70;85.70;;;;;;;6.31;76.41;100487.61;112820;1239;21963;-76
2023/04/11 00:50:35;;;;;;;103.90;88.00;;;;;;;6.30;76.47;100484.70;113400;1233;23563;-77
2023/04/11 00:53:17;;;;;;;93.40;83.20;;;;;;;6.29;76.57;100478.84;113136;1239;21950;-77
2023/04/11 00:56:00;;;;;;;97.30;84.60;;;;;;;6.25;76.76;100469.56;112718;1239;21955;-77
2023/04/11 00:58:40;;;;;;;96.70;84.60;;;;;;;6.23;76.87;100462.35;112930;1239;21942;-78
2023/04/11 01:01:15;;;;;;;96.60;84.70;;;;;;;6.23;76.91;100456.83;112903;1239;23597;-78
2023/04/11 01:03:48;;;;;;;100.70;84.60;;;;;;;6.26;77.05;100449.69;113086;1239;23007;-77
2023/04/11 01:06:23;;;;;;;97.90;86.20;;;;;;;6.26;76.86;100448.30;113182;1239;24162;-77
2023/04/11 01:09:03;;;;;;;98.80;86.60;;;;;;;6.22;76.52;100440.08;112550;1239;22407;-78
2023/04/11 01:11:41;;;;;;;98.50;87.60;;;;;;;6.11;76.59;100429.38;112561;1239;21962;-76
2023/04/11 01:14:16;;;;;;;101.30;90.00;;;;;;;6.09;76.71;100424.59;113166;1239;23571;-77
2023/04/11 01:16:50;;;;;;;103.50;87.40;;;;;;;6.10;76.73;100423.55;112950;1239;23023;-76
2023/04/11 01:19:31;;;;;;;102.70;89.00;;;;;;;6.08;76.74;100417.88;113415;1233;22998;-77
2023/04/11 01:22:04;;;;;;;106.70;95.00;;;;;;;6.05;76.83;100424.65;113303;1233;21991;-78
2023/04/11 01:24:39;;;;;;;105.50;93.90;;;;;;;6.07;76.94;100420.65;113572;1233;24321;-76
2023/04/11 01:27:16;;;;;;;107.50;94.80;;;;;;;6.06;77.03;100418.23;113268;1233;21932;-77
2023/04/11 01:29:46;;;;;;;106.90;93.20;;;;;;;6.06;76.98;100415.30;113585;1233;23383;-77
2023/04/11 01:32:22;;;;;;;107.00;90.90;;;;;;;6.03;76.91;100411.39;113636;1233;21945;-77
2023/04/11 01:35:05;;;;;;;99.30;88.60;;;;;;;5.99;76.70;100410.23;112991;1238;21956;-76
2023/04/11 01:37:44;;;;;;;102.30;91.20;;;;;;;5.92;76.64;100409.33;112226;1244;23607;-77
2023/04/11 01:40:22;;;;;;;107.10;95.20;;;;;;;5.84;76.79;100404.77;111917;1249;24329;-78
2023/04/11 01:43:01;;;;;;;121.00;104.80;;;;;;;5.79;77.02;100402.11;111806;1249;21954;-76
2023/04/11 01:45:47;;;;;;;132.10;110.00;;;;;;;5.74;76.94;100399.60;111981;1249;23778;-77
2023/04/11 01:48:19;;;;;;;129.30;106.90;;;;;;;5.70;76.84;100402.08;111783;1248;23606;-77
2023/04/11 01:50:56;;;;;;;123.30;105.90;;;;;;;5.66;76.91;100401.98;112009;1249;22728;-76
2023/04/11 01:53:29;;;;;;;122.40;100.00;;;;;;;5.62;76.91;100401.19;111241;1255;22088;-77
2023/04/11 01:56:02;;;;;;;122.80;101.00;;;;;;;5.59;76.91;100402.11;111430;1250;21991;-77
2023/04/11 01:58:34;;;;;;;115.80;98.30;;;;;;;5.56;77.02;100400.26;111968;1245;23014;-76
2023/04/11 02:01:07;;;;;;;113.10;97.10;;;;;;;5.52;76.95;100392.04;112492;1239;22971;-76
2023/04/11 02:03:40;;;;;;;111.30;97.10;;;;;;;5.51;76.99;100384.80;112874;1239;22623;-76
2023/04/11 02:06:15;;;;;;;113.60;95.60;;;;;;;5.51;77.08;100378.59;112873;1239;21946;-76
2023/04/11 02:08:49;;;;;;;106.90;93.50;;;;;;;5.48;77.02;100376.22;111792;1246;23839;-77
2023/04/11 02:11:25;;;;;;;109.90;91.60;;;;;;;5.45;77.11;100376.27;112591;1239;21958;-77
2023/04/11 02:13:58;;;;;;;92.80;82.80;;;;;;;5.42;77.12;100381.31;112792;1239;21967;-76
2023/04/11 02:16:29;;;;;;;96.70;86.00;;;;;;;5.39;77.32;100378.26;112531;1240;21969;-77
2023/04/11 02:19:02;;;;;;;93.20;83.00;;;;;;;5.38;77.41;100376.73;112883;1240;22870;-77
2023/04/11 02:21:35;;;;;;;95.70;85.30;;;;;;;5.36;77.41;100373.31;112546;1240;23004;-76
2023/04/11 02:24:07;;;;;;;103.90;91.40;;;;;;;5.32;77.34;100366.63;112105;1245;23704;-77
2023/04/11 02:26:48;;;;;;;98.10;87.40;;;;;;;5.31;77.36;100363.89;112235;1239;21973;-77
2023/04/11 02:29:21;;;;;;;113.10;90.70;;;;;;;5.28;77.37;100358.77;112654;1239;23036;-78
2023/04/11 02:31:50;;;;;;;94.80;84.40;;;;;;;5.23;77.22;100354.52;112930;1239;21983;-77
2023/04/11 02:34:20;;;;;;;96.80;86.40;;;;;;;5.17;77.29;100354.44;112915;1239;21977;-76
2023/04/11 02:36:50;;;;;;;99.80;87.90;;;;;;;5.15;77.49;100348.61;112853;1239;21932;-76
2023/04/11 02:39:25;;;;;;;109.20;96.80;;;;;;;5.12;77.49;100344.17;112499;1239;22732;-77
2023/04/11 02:41:56;;;;;;;108.00;93.80;;;;;;;5.10;77.60;100341.44;113142;1233;21943;-77
2023/04/11 02:44:28;;;;;;;108.90;96.90;;;;;;;5.11;77.91;100337.64;113367;1233;22160;-76
2023/04/11 02:46:58;;;;;;;119.50;100.40;;;;;;;5.12;77.98;100331.75;113536;1233;21965;-78
2023/04/11 02:49:27;;;;;;;109.10;95.30;;;;;;;5.14;77.92;100328.96;113726;1233;22388;-77
2023/04/11 02:51:57;;;;;;;105.00;93.50;;;;;;;5.16;77.96;100324.63;113732;1233;21934;-77
2023/04/11 02:54:26;;;;;;;92.90;83.20;;;;;;;5.18;78.04;100325.80;113650;1233;22098;-75
2023/04/11 02:56:57;;;;;;;97.10;86.80;;;;;;;5.22;78.20;100323.67;113499;1233;21934;-76
2023/04/11 02:59:26;;;;;;;96.90;86.30;;;;;;;5.26;78.25;100328.60;113606;1233;22030;-77
2023/04/11 03:01:58;;;;;;;97.30;87.00;;;;;;;5.31;78.23;100327.14;113353;1233;21947;-76
2023/04/11 03:04:28;;;;;;;97.60;87.50;;;;;;;5.38;78.30;100325.30;113647;1233;23029;-77
2023/04/11 03:07:06;;;;;;;91.70;81.70;;;;;;;5.45;78.25;100322.41;113582;1233;23030;-78
2023/04/11 03:09:39;;;;;;;87.70;78.70;;;;;;;5.51;78.21;100312.65;113662;1233;21957;-77
2023/04/11 03:12:10;;;;;;;91.50;81.80;;;;;;;5.58;78.17;100309.09;113285;1233;21920;-78
2023/04/11 03:14:55;;;;;;;87.50;78.20;;;;;;;5.62;78.19;100308.31;113315;1233;23596;-77
2023/04/11 03:17:52;;;;;;;85.20;75.10;;;;;;;5.64;77.95;100303.44;113523;1233;22055;-77
2023/04/11 03:20:25;;;;;;;81.80;73.40;;;;;;;5.67;77.89;100303.04;113674;1233;21945;-77
2023/04/11 03:23:00;;;;;;;83.30;74.80;;;;;;;5.70;77.90;100306.63;113492;1233;21979;-78
2023/04/11 03:25:39;;;;;;;82.50;74.20;;;;;;;5.74;77.83;100305.34;113658;1233;24266;-77
2023/04/11 03:28:20;;;;;;;83.30;74.70;;;;;;;5.77;77.94;100302.17;113469;1233;23031;-78
2023/04/11 03:30:50;;;;;;;83.30;74.40;;;;;;;5.80;77.76;100299.52;113267;1238;21958;-77
2023/04/11 03:33:22;;;;;;;82.30;73.70;;;;;;;5.82;77.72;100294.11;113084;1238;21949;-76
2023/04/11 03:35:54;;;;;;;81.30;72.60;;;;;;;5.84;77.69;100295.30;112992;1235;21951;-77
2023/04/11 03:38:28;;;;;;;84.60;75.80;;;;;;;5.84;77.55;100296.33;113191;1235;23021;-76
2023/04/11 03:40:57;;;;;;;83.30;74.50;;;;;;;5.84;77.43;100291.48;112923;1238;21938;-78
2023/04/11 03:43:26;;;;;;;85.20;75.50;;;;;;;5.83;77.31;100290.13;113046;1238;22155;-76
2023/04/11 03:45:57;;;;;;;85.80;76.30;;;;;;;5.80;77.10;100293.81;112868;1238;24326;-77
2023/04/11 03:48:39;;;;;;;84.50;75.50;;;;;;;5.75;77.14;100290.81;113391;1233;23621;-78
2023/04/11 03:51:13;;;;;;;101.20;90.30;;;;;;;5.72;77.01;100291.20;113842;1233;22928;-80
2023/04/11 03:54:20;;;;;;;227.60;152.70;;;;;;;5.69;77.03;100285.73;113941;1233;21924;-80
2023/04/11 03:56:59;;;;;;;129.30;98.20;;;;;;;5.68;77.09;100280.23;113489;1233;23636;-77
2023/04/11 03:59:41;;;;;;;137.50;106.00;;;;;;;5.69;77.07;100274.68;113666;1236;23155;-78
2023/04/11 04:02:28;;;;;;;93.60;83.50;;;;;;;5.68;77.19;100263.81;113526;1236;21949;-78
2023/04/11 04:05:17;;;;;;;88.90;79.30;;;;;;;5.67;77.26;100255.21;113487;1236;21931;-78
2023/04/11 04:08:03;;;;;;;94.80;84.60;;;;;;;5.69;77.36;100251.02;113459;1236;23011;-77
2023/04/11 04:10:59;;;;;;;96.10;86.20;;;;;;;5.68;77.44;100241.38;113388;1236;23604;-75
2023/04/11 04:13:38;;;;;;;101.60;91.30;;;;;;;5.73;77.51;100238.52;113355;1236;24400;-75
2023/04/11 04:16:15;;;;;;;90.00;80.50;;;;;;;5.77;77.58;100235.16;113181;1227;23012;-76
2023/04/11 04:18:53;;;;;;;85.70;76.60;;;;;;;5.82;77.49;100231.79;113656;1233;22681;-76
2023/04/11 04:21:36;;;;;;;82.90;74.10;;;;;;;5.82;77.57;100234.54;113441;1233;22157;-75
2023/04/11 04:24:14;;;;;;;84.80;74.20;;;;;;;5.83;77.55;100231.74;113492;1238;22152;-77
2023/04/11 04:27:07;;;;;;;119.00;106.30;;;;;;;5.85;77.66;100230.16;113182;1238;23621;-75
2023/04/11 04:29:46;;;;;;;118.50;104.60;;;;;;;5.87;77.73;100224.94;113222;1237;23406;-76
2023/04/11 04:32:35;;;;;;;132.10;113.10;;;;;;;5.92;77.92;100223.98;113380;1237;22993;-75
2023/04/11 04:35:15;;;;;;;309.80;226.70;;;;;;;6.01;78.07;100220.70;113216;1237;23836;-79
2023/04/11 04:38:01;;;;;;;457.90;359.30;;;;;;;6.10;78.15;100217.24;113071;1237;23047;-76
2023/04/11 04:40:56;;;;;;;346.10;256.00;;;;;;;6.19;78.24;100207.03;113309;1237;21955;-77
2023/04/11 04:43:31;;;;;;;555.00;465.00;;;;;;;6.30;78.28;100196.77;113289;1237;21949;-78
2023/04/11 04:46:11;;;;;;;462.50;394.20;;;;;;;6.41;78.35;100195.12;113199;1237;23566;-75
2023/04/11 04:48:48;;;;;;;160.80;134.90;;;;;;;6.52;78.18;100197.80;113357;1233;22968;-78
2023/04/11 04:51:29;;;;;;;94.40;84.30;;;;;;;6.56;77.82;100198.58;113089;1237;22704;-75
2023/04/11 04:54:03;;;;;;;82.10;73.10;;;;;;;6.58;77.75;100199.40;113257;1237;22398;-77
2023/04/11 04:56:35;;;;;;;73.20;65.30;;;;;;;6.66;77.97;100200.77;113235;1237;22717;-77
2023/04/11 04:59:08;;;;;;;69.70;62.20;;;;;;;6.77;77.97;100199.64;113051;1236;21990;-77
2023/04/11 05:01:44;;;;;;;66.70;60.00;;;;;;;6.85;77.99;100202.73;112370;1243;24404;-76
2023/04/11 05:04:17;;;;;;;65.50;58.40;;;;;;;6.94;78.02;100200.95;112023;1248;21969;-77
2023/04/11 05:07:13;;;;;;;66.70;59.90;;;;;;;7.04;78.10;100200.15;111844;1248;21965;-76
2023/04/11 05:09:58;;;;;;;61.70;55.50;;;;;;;7.15;77.92;100201.95;111766;1246;23731;-78
2023/04/11 05:12:31;;;;;;;77.00;64.30;;;;;;;7.24;77.77;100200.00;112213;1246;22725;-77
2023/04/11 05:15:10;;;;;;;65.70;58.30;;;;;;;7.32;77.49;100198.41;112082;1246;21954;-77
2023/04/11 05:17:45;;;;;;;66.20;57.80;;;;;;;7.38;77.42;100201.71;112305;1245;22024;-77
2023/04/11 05:20:18;;;;;;;93.70;78.80;;;;;;;7.48;77.48;100200.56;112023;1246;21959;-78
2023/04/11 05:22:49;;;;;;;85.40;70.20;;;;;;;7.62;77.78;100197.78;112146;1239;21972;-78
2023/04/11 05:25:21;;;;;;;89.60;71.60;;;;;;;7.78;77.77;100196.09;112869;1239;22937;-76
2023/04/11 05:27:51;;;;;;;70.80;59.90;;;;;;;7.89;77.45;100192.31;113634;1233;23655;-76
2023/04/11 05:30:23;;;;;;;;;;;;;;;7.96;77.04;100189.67;113048;1237;21914;-77
2023/04/11 05:32:52;;;;;;;62.40;54.50;;;;;;;7.96;77.21;100187.09;113332;1236;21939;-77
2023/04/11 05:35:22;;;;;;;57.60;51.70;;;;;;;8.03;76.95;100182.88;113049;1238;21924;-76
2023/04/11 05:37:54;;;;;;;52.50;47.20;;;;;;;8.06;76.48;100177.42;112928;1237;21949;-77
2023/04/11 05:40:23;;;;;;;55.20;47.50;;;;;;;8.09;76.20;100174.21;112913;1238;21999;-78
2023/04/11 05:42:52;;;;;;;52.00;46.80;;;;;;;8.13;75.99;100166.13;113327;1236;22103;-76
2023/04/11 05:45:22;;;;;;;54.20;48.70;;;;;;;8.14;75.73;100161.91;113195;1238;21970;-77
2023/04/11 05:47:51;;;;;;;52.10;46.60;;;;;;;8.16;75.61;100156.66;113078;1233;21942;-76
2023/04/11 05:50:20;;;;;;;54.00;48.30;;;;;;;8.24;75.74;100154.02;113640;1233;23045;-76
2023/04/11 05:52:50;;;;;;;81.50;72.70;;;;;;;8.33;75.74;100153.37;112911;1237;23659;-76
2023/04/11 05:55:19;;;;;;;88.10;75.80;;;;;;;8.39;75.42;100151.11;113309;1236;21937;-76
2023/04/11 05:57:48;;;;;;;78.40;70.20;;;;;;;8.41;75.23;100143.41;112985;1237;21961;-76
2023/04/11 06:00:19;;;;;;;59.10;53.00;;;;;;;8.42;75.11;100148.08;113337;1237;22526;-76
2023/04/11 06:03:06;;;;;;;71.50;60.50;;;;;;;8.38;74.86;100150.77;113242;1237;22040;-77
2023/04/11 06:05:36;;;;;;;62.00;54.60;;;;;;;8.40;75.14;100141.70;113083;1237;21934;-75
2023/04/11 06:08:10;;;;;;;71.30;58.00;;;;;;;8.52;75.29;100138.58;113237;1237;24398;-75
2023/04/11 06:10:39;;;;;;;69.20;57.30;;;;;;;8.63;75.18;100135.27;113023;1232;22078;-75
2023/04/11 06:13:08;;;;;;;59.20;52.70;;;;;;;8.70;74.87;100132.94;113611;1233;22027;-75
2023/04/11 06:15:37;;;;;;;63.00;55.80;;;;;;;8.75;74.68;100131.20;112877;1239;21960;-76
2023/04/11 06:18:06;;;;;;;57.70;50.80;;;;;;;8.80;74.70;100124.99;112895;1238;22045;-73
2023/04/11 06:20:35;;;;;;;63.80;50.00;;;;;;;8.83;74.49;100122.78;113074;1239;23603;-74
2023/04/11 06:23:04;;;;;;;45.00;40.30;;;;;;;8.86;74.48;100115.90;112894;1239;22963;-74
2023/04/11 06:25:34;;;;;;;49.60;44.30;;;;;;;8.90;74.40;100105.71;112902;1239;23551;-77
2023/04/11 06:28:03;;;;;;;44.40;39.80;;;;;;;8.97;74.53;100091.05;112853;1239;22070;-77
2023/04/11 06:30:32;;;;;;;48.90;43.60;;;;;;;9.07;74.55;100079.42;113243;1239;21955;-80
2023/04/11 06:33:04;;;;;;;47.00;41.90;;;;;;;9.17;74.51;100070.23;113420;1232;21911;-78
2023/04/11 06:35:34;;;;;;;40.00;35.90;;;;;;;9.27;74.25;100064.66;113599;1233;23575;-77
2023/04/11 06:38:04;;;;;;;40.00;35.80;;;;;;;9.36;74.21;100061.67;113730;1233;21943;-75
2023/04/11 06:40:33;;;;;;;41.10;36.80;;;;;;;9.52;74.16;100058.48;113220;1232;21938;-77
2023/04/11 06:43:02;;;;;;;44.40;38.30;;;;;;;9.65;73.90;100055.21;113603;1233;21941;-77
2023/04/11 06:45:32;;;;;;;45.90;37.30;;;;;;;9.79;73.60;100054.87;113377;1232;21959;-75
2023/04/11 06:48:01;;;;;;;37.30;33.40;;;;;;;9.94;73.18;100049.02;113382;1233;21983;-76
2023/04/11 06:50:30;;;;;;;38.00;32.80;;;;;;;10.20;73.42;100046.08;113580;1233;21933;-75
2023/04/11 06:52:59;;;;;;;46.70;39.00;;;;;;;10.55;73.58;100036.48;113683;1232;22351;-75
2023/04/11 06:55:28;;;;;;;39.30;34.90;;;;;;;10.85;71.91;100022.13;113580;1232;23608;-77
2023/04/11 06:57:58;;;;;;;36.00;32.40;;;;;;;11.13;71.49;100016.70;113397;1232;21952;-80
2023/04/11 07:00:33;;;;;;;42.10;34.70;;;;;;;11.23;69.52;100017.29;113624;1232;22943;-76
2023/04/11 07:03:06;;;;;;;54.20;47.00;;;;;;;11.14;68.65;100025.36;113521;1233;23008;-77
2023/04/11 07:05:38;;;;;;;43.80;37.80;;;;;;;10.99;68.05;100027.96;113643;1232;21934;-78
2023/04/11 07:08:15;;;;;;;39.00;35.10;;;;;;;10.84;68.00;100021.80;112751;1240;21935;-76
2023/04/11 07:10:46;;;;;;;39.70;35.50;;;;;;;10.75;68.03;100012.80;112847;1240;22984;-77
2023/04/11 07:13:20;;;;;;;43.90;34.90;;;;;;;10.70;67.72;100008.68;112862;1240;23585;-76
2023/04/11 07:15:51;;;;;;;33.90;30.60;;;;;;;10.65;67.84;100008.55;112808;1240;21951;-78
2023/04/11 07:18:26;;;;;;;33.80;30.30;;;;;;;10.68;68.20;100005.80;112683;1240;22727;-77
2023/04/11 07:20:55;;;;;;;33.00;29.70;;;;;;;10.73;67.97;100009.42;113062;1240;22702;-77
2023/04/11 07:23:31;;;;;;;36.60;32.60;;;;;;;10.76;67.74;100009.33;112516;1239;23591;-77
2023/04/11 07:26:04;;;;;;;32.50;29.20;;;;;;;10.76;67.48;100003.55;112600;1240;23145;-78
2023/04/11 07:28:46;;;;;;;33.40;29.90;;;;;;;10.74;67.15;99995.65;112782;1240;21978;-78
2023/04/11 07:31:35;;;;;;;;;;;;;;;10.75;67.18;99994.55;112854;1240;21932;-77
2023/04/11 07:34:13;;;;;;;29.60;26.60;;;;;;;10.74;67.58;99992.65;113570;1233;23572;-78
2023/04/11 07:36:59;;;;;;;31.90;28.30;;;;;;;10.87;67.66;99994.21;113005;1237;23000;-77
2023/04/11 07:39:41;;;;;;;30.50;27.40;;;;;;;11.02;67.28;99999.63;113525;1237;22950;-77
2023/04/11 07:42:24;;;;;;;33.60;28.50;;;;;;;11.12;67.09;99994.96;113536;1237;21997;-77
2023/04/11 07:45:09;;;;;;;29.90;26.80;;;;;;;11.29;67.01;99999.59;112730;1241;21960;-78
2023/04/11 07:47:40;;;;;;;33.40;27.90;;;;;;;11.45;66.52;99999.39;112125;1246;23584;-76
2023/04/11 07:50:14;;;;;;;27.40;24.70;;;;;;;11.66;66.54;100000.13;112409;1246;23730;-77
2023/04/11 07:52:54;;;;;;;29.40;26.30;;;;;;;11.90;66.21;99998.29;112136;1246;21981;-77
2023/04/11 07:55:32;;;;;;;29.90;26.70;;;;;;;12.12;65.40;99997.95;111799;1248;21985;-77
2023/04/11 07:58:06;;;;;;;28.40;25.70;;;;;;;12.25;64.65;99996.23;111744;1252;21970;-79
2023/04/11 08:00:37;;;;;;;35.70;29.80;;;;;;;12.37;64.41;99993.17;111676;1252;22057;-77
2023/04/11 08:03:15;;;;;;;30.40;26.90;;;;;;;12.55;64.35;99987.03;111556;1252;23691;-79
2023/04/11 08:05:49;;;;;;;34.50;30.70;;;;;;;12.77;63.96;99985.86;111592;1247;23133;-78
2023/04/11 08:08:32;;;;;;;31.10;27.80;;;;;;;12.96;62.78;99979.66;112072;1247;21967;-79
2023/04/11 08:11:08;;;;;;;37.60;31.40;;;;;;;13.03;61.82;99971.21;111556;1249;21953;-77
2023/04/11 08:13:41;;;;;;;30.50;27.20;;;;;;;13.14;61.95;99962.27;111734;1249;23575;-79
2023/04/11 08:16:28;;;;;;;29.60;26.40;;;;;;;13.21;61.07;99950.51;112137;1249;21975;-78
2023/04/11 08:19:05;;;;;;;28.30;25.40;;;;;;;13.20;60.44;99946.20;112013;1249;22873;-76
2023/04/11 08:21:44;;;;;;;29.00;25.60;;;;;;;13.14;60.32;99941.64;112087;1244;21945;-80
2023/04/11 08:24:13;;;;;;;30.20;26.00;;;;;;;13.19;60.52;99939.29;112636;1239;22788;-78
2023/04/11 08:26:42;;;;;;;27.60;24.70;;;;;;;13.24;60.38;99940.58;112928;1239;21938;-79
2023/04/11 08:29:12;;;;;;;26.90;24.10;;;;;;;13.29;60.32;99937.50;113216;1232;21936;-77
2023/04/11 08:31:44;;;;;;;28.70;24.40;;;;;;;13.34;60.07;99939.86;113284;1239;21947;-77
2023/04/11 08:34:13;;;;;;;30.80;23.40;;;;;;;13.44;60.25;99940.16;113160;1239;21939;-76
2023/04/11 08:36:42;;;;;;;27.20;23.30;;;;;;;13.61;60.10;99941.52;112010;1244;23904;-77
2023/04/11 08:39:11;;;;;;;25.20;21.80;;;;;;;13.73;59.27;99936.08;112090;1244;22030;-78
2023/04/11 08:41:41;;;;;;;27.00;22.80;;;;;;;13.73;58.73;99931.92;112076;1244;23027;-79
2023/04/11 08:44:11;;;;;;;24.50;22.00;;;;;;;13.62;57.81;99931.62;112377;1245;23034;-80
2023/04/11 08:46:42;;;;;;;27.70;23.40;;;;;;;13.54;58.14;99924.27;112293;1245;21969;-79
2023/04/11 08:49:12;;;;;;;25.40;22.20;;;;;;;13.58;58.52;99920.69;112473;1239;22977;-82
2023/04/11 08:51:45;;;;;;;24.80;22.10;;;;;;;13.63;58.19;99914.98;112550;1239;21957;-77
2023/04/11 08:54:14;;;;;;;24.40;20.40;;;;;;;13.70;58.36;99914.23;112851;1233;21951;-76
2023/04/11 08:56:46;;;;;;;24.30;21.60;;;;;;;13.85;58.28;99906.37;113442;1233;22782;-78
2023/04/11 08:59:22;;;;;;;23.90;20.90;;;;;;;13.99;58.00;99901.40;113621;1233;22048;-80
2023/04/11 09:02:10;;;;;;;21.10;17.60;;;;;;;14.13;57.39;99898.42;113652;1233;23709;-79
2023/04/11 09:04:42;;;;;;;23.10;17.90;;;;;;;14.27;57.20;99899.02;113038;1239;23597;-80
2023/04/11 09:07:18;;;;;;;18.80;16.80;;;;;;;14.34;56.19;99891.59;112903;1238;21994;-78
2023/04/11 09:09:53;;;;;;;25.80;18.50;;;;;;;14.39;56.09;99878.83;112548;1243;23312;-78
2023/04/11 09:12:46;;;;;;;20.10;16.60;;;;;;;14.48;55.37;99875.32;112185;1243;21946;-79
2023/04/11 09:15:39;;;;;;;20.30;15.10;;;;;;;14.38;54.44;99868.04;112605;1245;21987;-79
2023/04/11 09:18:49;;;;;;;17.20;14.50;;;;;;;14.34;54.68;99862.54;112172;1245;21961;-78
2023/04/11 09:22:17;;;;;;;19.30;15.50;;;;;;;14.28;54.57;99857.27;112349;1245;21980;-79
2023/04/11 09:25:10;;;;;;;15.60;14.10;;;;;;;14.23;54.10;99850.08;112846;1242;23136;-81
2023/04/11 09:27:42;;;;;;;22.30;15.10;;;;;;;14.13;53.81;99848.56;113058;1233;21968;-81
2023/04/11 09:30:35;;;;;;;17.70;15.00;;;;;;;14.13;54.25;99848.91;113463;1237;22015;-81
2023/04/11 09:33:32;;;;;;;15.60;14.00;;;;;;;14.19;54.23;99837.20;112686;1241;22006;-80
2023/04/11 09:36:29;;;;;;;16.20;14.10;;;;;;;14.11;53.22;99827.86;113218;1240;21944;-81
2023/04/11 09:39:28;;;;;;;16.60;14.90;;;;;;;14.03;53.53;99818.73;112927;1240;21942;-80
2023/04/11 09:42:25;;;;;;;16.80;13.50;;;;;;;14.05;53.53;99811.80;112634;1244;23586;-81
2023/04/11 09:45:03;;;;;;;15.80;12.80;;;;;;;14.09;53.26;99812.76;112758;1245;21945;-81
2023/04/11 09:48:08;;;;;;;17.10;14.40;;;;;;;14.25;53.22;99811.60;112755;1242;22244;-80
2023/04/11 09:50:52;;;;;;;14.10;12.80;;;;;;;14.44;53.08;99813.42;112722;1238;22060;-80
2023/04/11 09:53:42;;;;;;;;;;;;;;;14.61;52.86;99810.63;113672;1238;21934;-80
2023/04/11 09:56:28;;;;;;;23.80;21.20;;;;;;;14.65;52.64;99806.33;113336;1237;21931;-82
2023/04/11 09:59:22;;;;;;;17.60;14.40;;;;;;;14.74;52.31;99799.85;113441;1238;21943;-82
2023/04/11 10:02:08;;;;;;;16.70;14.40;;;;;;;14.88;52.55;99795.94;113962;1233;23012;-83
2023/04/11 10:04:47;;;;;;;15.40;13.50;;;;;;;15.00;51.42;99794.52;113515;1238;23571;-82
2023/04/11 10:07:31;;;;;;;14.70;13.10;;;;;;;15.01;51.29;99785.86;113018;1239;23004;-83
2023/04/11 10:10:27;;;;;;;17.70;15.50;;;;;;;15.00;51.03;99779.95;113249;1239;21940;-81
2023/04/11 10:13:34;;;;;;;14.00;12.20;;;;;;;14.89;50.73;99773.27;112900;1239;21952;-80
2023/04/11 10:16:22;;;;;;;14.90;12.90;;;;;;;14.89;50.88;99773.45;113173;1239;21969;-81
2023/04/11 10:18:56;;;;;;;18.10;13.80;;;;;;;14.99;50.95;99770.88;112518;1244;21942;-82
2023/04/11 10:21:29;;;;;;;14.00;12.60;;;;;;;15.05;50.63;99772.44;112737;1241;21966;-80
2023/04/11 10:24:22;;;;;;;14.70;11.90;;;;;;;15.01;50.36;99770.02;113269;1238;22951;-82
2023/04/11 10:27:06;;;;;;;14.70;13.00;;;;;;;15.08;50.69;99771.35;113228;1238;22252;-81
2023/04/11 10:30:15;;;;;;;14.70;11.80;;;;;;;15.19;50.41;99766.96;113068;1238;21953;-82
2023/04/11 10:33:26;;;;;;;12.30;10.90;;;;;;;15.29;50.05;99763.68;113317;1239;21906;-84
2023/04/11 10:36:28;;;;;;;12.60;10.90;;;;;;;15.52;50.29;99762.09;112759;1239;22983;-83
2023/04/11 10:39:52;;;;;;;16.00;14.10;;;;;;;15.75;49.43;99755.13;113501;1234;22788;-82
2023/04/11 10:43:02;;;;;;;14.40;12.90;;;;;;;15.87;49.30;99751.55;113532;1234;21957;-81
2023/04/11 10:46:31;;;;;;;10.50;9.40;;;;;;;15.90;48.40;99748.84;113790;1234;22426;-82
2023/04/11 10:50:11;;;;;;;12.80;10.60;;;;;;;15.71;47.81;99740.66;113804;1234;21963;-82
2023/04/11 10:53:46;;;;;;;11.90;9.50;;;;;;;15.72;48.04;99740.46;114012;1234;21952;-82
2023/04/11 10:56:56;;;;;;;12.20;10.40;;;;;;;15.82;47.76;99723.77;112465;1244;21915;-85
2023/04/11 11:00:00;;;;;;;9.80;8.70;;;;;;;15.90;46.98;99719.94;112571;1242;21969;-80
2023/04/11 11:02:51;;;;;;;13.50;10.50;;;;;;;15.91;47.29;99714.55;112750;1244;22817;-82
2023/04/11 11:05:30;;;;;;;12.10;9.00;;;;;;;16.15;47.72;99708.11;112704;1244;21995;-79
2023/04/11 11:08:30;;;;;;;11.10;9.40;;;;;;;16.45;47.15;99713.02;112079;1249;21948;-80
2023/04/11 11:11:18;;;;;;;14.20;10.00;;;;;;;16.57;45.59;99704.41;112073;1249;21964;-80
2023/04/11 11:14:29;;;;;;;14.00;9.70;;;;;;;16.62;45.71;99701.96;112183;1248;21982;-80
2023/04/11 11:17:27;;;;;;;12.00;9.30;;;;;;;16.52;44.93;99703.71;111645;1246;535287;-78
2023/04/11 11:20:21;;;;;;;12.80;9.60;;;;;;;16.40;45.15;99703.02;111867;1248;24383;-78
2023/04/11 11:23:06;;;;;;;10.80;8.90;;;;;;;16.37;45.21;99702.16;111844;1248;21961;-78
2023/04/11 11:26:05;;;;;;;14.80;9.80;;;;;;;16.28;45.27;99696.83;111938;1244;21967;-79
2023/04/11 11:28:53;;;;;;;12.20;10.70;;;;;;;16.25;45.08;99701.48;112306;1244;21916;-79
2023/04/11 11:31:38;;;;;;;12.90;10.00;;;;;;;16.22;44.58;99700.81;112459;1237;21937;-78
2023/04/11 11:34:25;;;;;;;13.70;11.30;;;;;;;16.31;45.65;99702.96;113283;1233;23015;-79
2023/04/11 11:37:03;;;;;;;16.00;10.70;;;;;;;16.47;45.11;99699.71;113523;1233;21907;-79
2023/04/11 11:39:44;;;;;;;12.70;11.30;;;;;;;16.44;44.57;99699.40;114326;1233;23085;-81
2023/04/11 11:42:19;;;;;;;11.20;10.10;;;;;;;16.38;44.74;99701.58;114225;1233;21947;-78
2023/04/11 11:45:12;;;;;;;13.60;12.10;;;;;;;16.32;45.00;99703.41;113550;1232;21942;-79
2023/04/11 11:47:49;;;;;;;14.40;11.70;;;;;;;16.29;45.30;99706.80;113739;1233;21941;-77
2023/04/11 11:50:31;;;;;;;14.10;11.60;;;;;;;16.30;45.43;99705.16;113340;1233;24891;-78
2023/04/11 11:53:17;;;;;;;15.10;12.10;;;;;;;16.26;44.99;99710.48;113409;1233;21934;-79
2023/04/11 11:56:11;;;;;;;15.60;13.00;;;;;;;16.15;45.19;99709.52;113600;1233;21935;-80
2023/04/11 11:58:49;;;;;;;16.50;14.80;;;;;;;16.10;45.33;99707.10;113825;1233;21935;-79
2023/04/11 12:01:42;;;;;;;15.30;13.60;;;;;;;16.17;45.28;99711.67;113853;1233;21939;-79